sensor_id;sensor_type;location;lat;lon;timestamp;temperature;humidity
28532;DHT22;15738;44.860;10.066;2022-12-07T00:01:14;6.70;99.90
28532;DHT22;15738;44.860;10.066;2022-12-07T00:04:01;6.80;99.90
28532;DHT22;15738;44.860;10.066;2022-12-07T00:06:51;6.70;99.90
28532;DHT22;15738;44.860;10.066;2022-12-07T00:09:38;6.70;99.90
28532;DHT22;15738;44.860;10.066;2022-12-07T00:12:24;6.70;99.90
28532;DHT22;15738;44.860;10.066;2022-12-07T00:15:10;6.70;99.90
28532;DHT22;15738;44.860;10.066;2022-12-07T00:17:55;6.70;99.90
28532;DHT22;15738;44.860;10.066;2022-12-07T00:20:41;6.70;99.90
28532;DHT22;15738;44.860;10.066;2022-12-07T00:23:26;6.70;99.90
28532;DHT22;15738;44.860;10.066;2022-12-07T00:26:18;6.70;99.90
28532;DHT22;15738;44.860;10.066;2022-12-07T00:29:15;6.70;99.90
28532;DHT22;15738;44.860;10.066;2022-12-07T00:32:01;6.70;99.90
28532;DHT22;15738;44.860;10.066;2022-12-07T00:34:47;6.70;99.90
28532;DHT22;15738;44.860;10.066;2022-12-07T00:37:33;6.80;99.90
28532;DHT22;15738;44.860;10.066;2022-12-07T00:40:19;6.80;99.90
28532;DHT22;15738;44.860;10.066;2022-12-07T00:43:04;6.80;99.90
28532;DHT22;15738;44.860;10.066;2022-12-07T00:45:50;6.80;99.90
28532;DHT22;15738;44.860;10.066;2022-12-07T00:48:36;6.80;99.90
28532;DHT22;15738;44.860;10.066;2022-12-07T00:51:24;6.80;99.90
28532;DHT22;15738;44.860;10.066;2022-12-07T00:54:10;6.80;99.90
28532;DHT22;15738;44.860;10.066;2022-12-07T00:56:56;6.80;99.90
28532;DHT22;15738;44.860;10.066;2022-12-07T00:59:41;6.90;99.90
28532;DHT22;15738;44.860;10.066;2022-12-07T01:02:27;6.80;99.90
28532;DHT22;15738;44.860;10.066;2022-12-07T01:05:13;6.90;99.90
28532;DHT22;15738;44.860;10.066;2022-12-07T01:07:58;6.90;99.90
28532;DHT22;15738;44.860;10.066;2022-12-07T01:10:44;7.00;99.90
28532;DHT22;15738;44.860;10.066;2022-12-07T01:13:30;7.00;99.90
28532;DHT22;15738;44.860;10.066;2022-12-07T01:16:17;7.00;99.90
28532;DHT22;15738;44.860;10.066;2022-12-07T01:19:03;7.00;99.90
28532;DHT22;15738;44.860;10.066;2022-12-07T01:21:50;7.00;99.90
28532;DHT22;15738;44.860;10.066;2022-12-07T01:24:35;7.00;99.90
28532;DHT22;15738;44.860;10.066;2022-12-07T01:27:21;7.00;99.90
28532;DHT22;15738;44.860;10.066;2022-12-07T01:30:07;7.00;99.90
28532;DHT22;15738;44.860;10.066;2022-12-07T01:32:52;7.10;99.90
28532;DHT22;15738;44.860;10.066;2022-12-07T01:35:38;7.00;99.90
28532;DHT22;15738;44.860;10.066;2022-12-07T01:38:24;7.00;99.90
28532;DHT22;15738;44.860;10.066;2022-12-07T01:41:10;7.00;99.90
28532;DHT22;15738;44.860;10.066;2022-12-07T01:47:06;7.00;99.90
28532;DHT22;15738;44.860;10.066;2022-12-07T01:49:52;7.00;99.90
28532;DHT22;15738;44.860;10.066;2022-12-07T01:52:38;7.00;99.90
28532;DHT22;15738;44.860;10.066;2022-12-07T01:55:25;7.00;99.90
28532;DHT22;15738;44.860;10.066;2022-12-07T01:58:11;7.00;99.90
28532;DHT22;15738;44.860;10.066;2022-12-07T02:00:57;7.00;99.90
28532;DHT22;15738;44.860;10.066;2022-12-07T02:03:44;7.00;99.90
28532;DHT22;15738;44.860;10.066;2022-12-07T02:06:30;6.90;99.90
28532;DHT22;15738;44.860;10.066;2022-12-07T02:09:16;6.90;99.90
28532;DHT22;15738;44.860;10.066;2022-12-07T02:12:02;6.80;99.90
28532;DHT22;15738;44.860;10.066;2022-12-07T02:14:49;6.80;99.90
28532;DHT22;15738;44.860;10.066;2022-12-07T02:24:15;6.80;99.90
28532;DHT22;15738;44.860;10.066;2022-12-07T02:30:18;6.80;99.90
28532;DHT22;15738;44.860;10.066;2022-12-07T02:35:56;6.70;99.90
28532;DHT22;15738;44.860;10.066;2022-12-07T02:38:46;6.70;99.90
28532;DHT22;15738;44.860;10.066;2022-12-07T02:41:38;6.70;99.90
28532;DHT22;15738;44.860;10.066;2022-12-07T02:44:27;6.60;99.90
28532;DHT22;15738;44.860;10.066;2022-12-07T02:47:16;6.60;99.90
28532;DHT22;15738;44.860;10.066;2022-12-07T02:50:04;6.60;99.90
28532;DHT22;15738;44.860;10.066;2022-12-07T02:52:50;6.60;99.90
28532;DHT22;15738;44.860;10.066;2022-12-07T02:55:40;6.50;99.90
28532;DHT22;15738;44.860;10.066;2022-12-07T02:58:50;6.50;99.90
28532;DHT22;15738;44.860;10.066;2022-12-07T03:01:50;6.50;99.90
28532;DHT22;15738;44.860;10.066;2022-12-07T03:10:59;6.50;99.90
28532;DHT22;15738;44.860;10.066;2022-12-07T03:14:55;6.40;99.90
28532;DHT22;15738;44.860;10.066;2022-12-07T03:17:26;6.40;99.90
28532;DHT22;15738;44.860;10.066;2022-12-07T03:20:17;6.40;99.90
28532;DHT22;15738;44.860;10.066;2022-12-07T03:23:06;6.40;99.90
28532;DHT22;15738;44.860;10.066;2022-12-07T03:25:58;6.30;99.90
28532;DHT22;15738;44.860;10.066;2022-12-07T03:28:50;6.30;99.90
28532;DHT22;15738;44.860;10.066;2022-12-07T03:31:41;6.30;99.90
28532;DHT22;15738;44.860;10.066;2022-12-07T03:35:18;6.30;99.90
28532;DHT22;15738;44.860;10.066;2022-12-07T03:38:28;6.30;99.90
28532;DHT22;15738;44.860;10.066;2022-12-07T03:41:24;6.20;99.90
28532;DHT22;15738;44.860;10.066;2022-12-07T03:44:10;6.30;99.90
28532;DHT22;15738;44.860;10.066;2022-12-07T03:50:28;6.30;99.90
28532;DHT22;15738;44.860;10.066;2022-12-07T03:53:20;6.30;99.90
28532;DHT22;15738;44.860;10.066;2022-12-07T03:56:08;6.20;99.90
28532;DHT22;15738;44.860;10.066;2022-12-07T03:58:55;6.20;99.90
28532;DHT22;15738;44.860;10.066;2022-12-07T04:01:47;6.20;99.90
28532;DHT22;15738;44.860;10.066;2022-12-07T04:04:36;6.20;99.90
28532;DHT22;15738;44.860;10.066;2022-12-07T04:07:22;6.20;99.90
28532;DHT22;15738;44.860;10.066;2022-12-07T04:10:08;6.10;99.90
28532;DHT22;15738;44.860;10.066;2022-12-07T04:12:55;6.20;99.90
28532;DHT22;15738;44.860;10.066;2022-12-07T04:15:40;6.20;99.90
28532;DHT22;15738;44.860;10.066;2022-12-07T04:18:26;6.00;99.90
28532;DHT22;15738;44.860;10.066;2022-12-07T04:21:12;6.00;99.90
28532;DHT22;15738;44.860;10.066;2022-12-07T04:23:57;5.90;99.90
28532;DHT22;15738;44.860;10.066;2022-12-07T04:26:45;5.80;99.90
28532;DHT22;15738;44.860;10.066;2022-12-07T04:29:31;5.90;99.90
28532;DHT22;15738;44.860;10.066;2022-12-07T04:32:17;5.90;99.90
28532;DHT22;15738;44.860;10.066;2022-12-07T04:35:03;5.80;99.90
28532;DHT22;15738;44.860;10.066;2022-12-07T04:37:49;5.80;99.90
28532;DHT22;15738;44.860;10.066;2022-12-07T04:40:34;5.70;99.90
28532;DHT22;15738;44.860;10.066;2022-12-07T04:43:20;5.80;99.90
28532;DHT22;15738;44.860;10.066;2022-12-07T04:46:06;5.70;99.90
28532;DHT22;15738;44.860;10.066;2022-12-07T04:48:53;5.70;99.90
28532;DHT22;15738;44.860;10.066;2022-12-07T04:51:38;5.60;99.90
28532;DHT22;15738;44.860;10.066;2022-12-07T04:54:24;5.70;99.90
28532;DHT22;15738;44.860;10.066;2022-12-07T04:59:56;5.70;99.90
28532;DHT22;15738;44.860;10.066;2022-12-07T05:02:42;5.70;99.90
28532;DHT22;15738;44.860;10.066;2022-12-07T05:05:27;5.70;99.90
28532;DHT22;15738;44.860;10.066;2022-12-07T05:08:13;5.70;99.90
28532;DHT22;15738;44.860;10.066;2022-12-07T05:10:59;5.60;99.90
28532;DHT22;15738;44.860;10.066;2022-12-07T05:13:45;5.60;99.90
28532;DHT22;15738;44.860;10.066;2022-12-07T05:16:31;5.60;99.90
28532;DHT22;15738;44.860;10.066;2022-12-07T05:19:17;5.60;99.90
28532;DHT22;15738;44.860;10.066;2022-12-07T05:22:04;5.50;99.90
28532;DHT22;15738;44.860;10.066;2022-12-07T05:24:50;5.50;99.90
28532;DHT22;15738;44.860;10.066;2022-12-07T05:27:36;5.50;99.90
28532;DHT22;15738;44.860;10.066;2022-12-07T05:30:23;5.50;99.90
28532;DHT22;15738;44.860;10.066;2022-12-07T05:33:09;5.50;99.90
28532;DHT22;15738;44.860;10.066;2022-12-07T05:35:54;5.50;99.90
28532;DHT22;15738;44.860;10.066;2022-12-07T05:38:40;5.60;99.90
28532;DHT22;15738;44.860;10.066;2022-12-07T05:41:26;5.50;99.90
28532;DHT22;15738;44.860;10.066;2022-12-07T05:44:31;5.50;99.90
28532;DHT22;15738;44.860;10.066;2022-12-07T05:47:16;5.50;99.90
28532;DHT22;15738;44.860;10.066;2022-12-07T05:50:04;5.50;99.90
28532;DHT22;15738;44.860;10.066;2022-12-07T05:52:50;5.50;99.90
28532;DHT22;15738;44.860;10.066;2022-12-07T05:55:35;5.40;99.90
28532;DHT22;15738;44.860;10.066;2022-12-07T05:58:21;5.30;99.90
28532;DHT22;15738;44.860;10.066;2022-12-07T06:01:25;5.40;99.90
28532;DHT22;15738;44.860;10.066;2022-12-07T06:04:11;5.40;99.90
28532;DHT22;15738;44.860;10.066;2022-12-07T06:06:57;5.40;99.90
28532;DHT22;15738;44.860;10.066;2022-12-07T06:09:43;5.30;99.90
28532;DHT22;15738;44.860;10.066;2022-12-07T06:12:29;5.30;99.90
28532;DHT22;15738;44.860;10.066;2022-12-07T06:15:21;5.30;99.90
28532;DHT22;15738;44.860;10.066;2022-12-07T06:18:08;5.20;99.90
28532;DHT22;15738;44.860;10.066;2022-12-07T06:20:53;5.20;99.90
28532;DHT22;15738;44.860;10.066;2022-12-07T06:23:40;5.20;99.90
28532;DHT22;15738;44.860;10.066;2022-12-07T06:26:26;5.20;99.90
28532;DHT22;15738;44.860;10.066;2022-12-07T06:29:12;5.10;99.90
28532;DHT22;15738;44.860;10.066;2022-12-07T06:31:59;5.10;99.90
28532;DHT22;15738;44.860;10.066;2022-12-07T06:34:44;5.10;99.90
28532;DHT22;15738;44.860;10.066;2022-12-07T06:37:32;5.10;99.90
28532;DHT22;15738;44.860;10.066;2022-12-07T06:40:18;5.10;99.90
28532;DHT22;15738;44.860;10.066;2022-12-07T06:43:03;5.00;99.90
28532;DHT22;15738;44.860;10.066;2022-12-07T06:45:49;5.00;99.90
28532;DHT22;15738;44.860;10.066;2022-12-07T06:48:34;4.00;99.90
28532;DHT22;15738;44.860;10.066;2022-12-07T06:51:20;5.10;99.90
28532;DHT22;15738;44.860;10.066;2022-12-07T06:54:10;5.10;99.90
28532;DHT22;15738;44.860;10.066;2022-12-07T06:56:56;5.10;99.90
28532;DHT22;15738;44.860;10.066;2022-12-07T06:59:42;5.10;99.90
28532;DHT22;15738;44.860;10.066;2022-12-07T07:04:18;5.00;99.90
28532;DHT22;15738;44.860;10.066;2022-12-07T07:07:03;5.00;99.90
28532;DHT22;15738;44.860;10.066;2022-12-07T07:09:49;4.90;99.90
28532;DHT22;15738;44.860;10.066;2022-12-07T07:12:34;4.90;99.90
28532;DHT22;15738;44.860;10.066;2022-12-07T07:15:20;4.90;99.90
28532;DHT22;15738;44.860;10.066;2022-12-07T07:18:06;4.90;99.90
28532;DHT22;15738;44.860;10.066;2022-12-07T07:20:53;4.90;99.90
28532;DHT22;15738;44.860;10.066;2022-12-07T07:23:39;4.90;99.90
28532;DHT22;15738;44.860;10.066;2022-12-07T07:26:25;4.90;99.90
28532;DHT22;15738;44.860;10.066;2022-12-07T07:29:10;5.00;99.90
28532;DHT22;15738;44.860;10.066;2022-12-07T07:31:56;5.00;99.90
28532;DHT22;15738;44.860;10.066;2022-12-07T07:34:49;5.10;99.90
28532;DHT22;15738;44.860;10.066;2022-12-07T07:37:35;5.00;99.90
28532;DHT22;15738;44.860;10.066;2022-12-07T07:40:22;5.00;99.90
28532;DHT22;15738;44.860;10.066;2022-12-07T07:43:08;5.10;99.90
28532;DHT22;15738;44.860;10.066;2022-12-07T07:45:56;5.20;99.90
28532;DHT22;15738;44.860;10.066;2022-12-07T07:48:42;5.10;99.90
28532;DHT22;15738;44.860;10.066;2022-12-07T07:51:28;5.20;99.90
28532;DHT22;15738;44.860;10.066;2022-12-07T07:54:14;5.20;99.90
28532;DHT22;15738;44.860;10.066;2022-12-07T07:57:00;5.00;99.90
28532;DHT22;15738;44.860;10.066;2022-12-07T07:59:46;5.00;99.90
28532;DHT22;15738;44.860;10.066;2022-12-07T08:02:32;5.00;99.90
28532;DHT22;15738;44.860;10.066;2022-12-07T08:05:18;5.10;99.90
28532;DHT22;15738;44.860;10.066;2022-12-07T08:08:04;5.10;99.90
28532;DHT22;15738;44.860;10.066;2022-12-07T08:10:51;5.10;99.90
28532;DHT22;15738;44.860;10.066;2022-12-07T08:13:37;5.10;99.90
28532;DHT22;15738;44.860;10.066;2022-12-07T08:16:22;5.10;99.90
28532;DHT22;15738;44.860;10.066;2022-12-07T08:19:08;5.00;99.90
28532;DHT22;15738;44.860;10.066;2022-12-07T08:21:55;5.00;99.90
28532;DHT22;15738;44.860;10.066;2022-12-07T08:24:41;5.00;99.90
28532;DHT22;15738;44.860;10.066;2022-12-07T08:27:27;5.10;99.90
28532;DHT22;15738;44.860;10.066;2022-12-07T08:30:14;5.10;99.90
28532;DHT22;15738;44.860;10.066;2022-12-07T08:33:00;5.10;99.90
28532;DHT22;15738;44.860;10.066;2022-12-07T08:35:46;5.10;99.90
28532;DHT22;15738;44.860;10.066;2022-12-07T08:38:33;5.20;99.90
28532;DHT22;15738;44.860;10.066;2022-12-07T08:41:19;5.10;99.90
28532;DHT22;15738;44.860;10.066;2022-12-07T08:44:05;5.00;99.90
28532;DHT22;15738;44.860;10.066;2022-12-07T08:46:54;5.00;99.90
28532;DHT22;15738;44.860;10.066;2022-12-07T08:49:44;5.10;99.90
28532;DHT22;15738;44.860;10.066;2022-12-07T08:52:31;5.20;99.90
28532;DHT22;15738;44.860;10.066;2022-12-07T08:55:17;5.20;99.90
28532;DHT22;15738;44.860;10.066;2022-12-07T08:58:03;5.30;99.90
28532;DHT22;15738;44.860;10.066;2022-12-07T09:00:49;5.30;99.90
28532;DHT22;15738;44.860;10.066;2022-12-07T09:03:34;5.10;99.90
28532;DHT22;15738;44.860;10.066;2022-12-07T09:06:20;5.20;99.90
28532;DHT22;15738;44.860;10.066;2022-12-07T09:09:07;5.20;99.90
28532;DHT22;15738;44.860;10.066;2022-12-07T09:11:54;5.20;99.90
28532;DHT22;15738;44.860;10.066;2022-12-07T09:14:40;5.30;99.90
28532;DHT22;15738;44.860;10.066;2022-12-07T09:17:26;5.30;99.90
28532;DHT22;15738;44.860;10.066;2022-12-07T09:20:12;5.30;99.90
28532;DHT22;15738;44.860;10.066;2022-12-07T09:22:58;5.30;99.90
28532;DHT22;15738;44.860;10.066;2022-12-07T09:25:43;5.40;99.90
28532;DHT22;15738;44.860;10.066;2022-12-07T09:28:30;5.50;99.90
28532;DHT22;15738;44.860;10.066;2022-12-07T09:31:16;5.50;99.90
28532;DHT22;15738;44.860;10.066;2022-12-07T09:34:11;5.50;99.90
28532;DHT22;15738;44.860;10.066;2022-12-07T09:36:57;5.50;99.90
28532;DHT22;15738;44.860;10.066;2022-12-07T09:39:43;5.60;99.90
28532;DHT22;15738;44.860;10.066;2022-12-07T09:42:41;5.60;99.90
28532;DHT22;15738;44.860;10.066;2022-12-07T09:45:35;5.70;99.90
28532;DHT22;15738;44.860;10.066;2022-12-07T09:48:34;5.80;99.90
28532;DHT22;15738;44.860;10.066;2022-12-07T09:51:24;5.80;99.90
28532;DHT22;15738;44.860;10.066;2022-12-07T09:54:16;6.00;99.90
28532;DHT22;15738;44.860;10.066;2022-12-07T09:57:01;6.00;99.90
28532;DHT22;15738;44.860;10.066;2022-12-07T09:59:47;6.00;99.90
28532;DHT22;15738;44.860;10.066;2022-12-07T10:02:40;6.10;99.90
28532;DHT22;15738;44.860;10.066;2022-12-07T10:05:34;6.10;99.90
28532;DHT22;15738;44.860;10.066;2022-12-07T10:08:22;6.10;99.90
28532;DHT22;15738;44.860;10.066;2022-12-07T10:11:07;6.10;99.90
28532;DHT22;15738;44.860;10.066;2022-12-07T10:14:11;6.10;99.90
28532;DHT22;15738;44.860;10.066;2022-12-07T10:16:57;6.00;99.90
28532;DHT22;15738;44.860;10.066;2022-12-07T10:19:43;6.10;99.90
28532;DHT22;15738;44.860;10.066;2022-12-07T10:22:29;6.00;99.90
28532;DHT22;15738;44.860;10.066;2022-12-07T10:25:19;5.90;99.90
28532;DHT22;15738;44.860;10.066;2022-12-07T10:28:17;6.00;99.90
28532;DHT22;15738;44.860;10.066;2022-12-07T10:31:19;6.10;99.90
28532;DHT22;15738;44.860;10.066;2022-12-07T10:34:24;6.10;99.90
28532;DHT22;15738;44.860;10.066;2022-12-07T10:40:00;6.10;99.90
28532;DHT22;15738;44.860;10.066;2022-12-07T10:43:03;6.00;99.90
28532;DHT22;15738;44.860;10.066;2022-12-07T10:46:01;6.00;99.90
28532;DHT22;15738;44.860;10.066;2022-12-07T10:49:40;6.10;99.90
28532;DHT22;15738;44.860;10.066;2022-12-07T10:58:24;6.00;99.90
28532;DHT22;15738;44.860;10.066;2022-12-07T11:01:39;6.00;99.90
28532;DHT22;15738;44.860;10.066;2022-12-07T11:04:35;6.10;99.90
28532;DHT22;15738;44.860;10.066;2022-12-07T11:11:16;6.10;99.90
28532;DHT22;15738;44.860;10.066;2022-12-07T11:14:33;6.20;99.90
28532;DHT22;15738;44.860;10.066;2022-12-07T11:17:45;6.30;99.90
28532;DHT22;15738;44.860;10.066;2022-12-07T11:30:08;6.40;99.90
28532;DHT22;15738;44.860;10.066;2022-12-07T11:33:26;6.40;99.90
28532;DHT22;15738;44.860;10.066;2022-12-07T11:36:37;6.40;99.90
28532;DHT22;15738;44.860;10.066;2022-12-07T11:39:33;6.30;99.90
28532;DHT22;15738;44.860;10.066;2022-12-07T11:42:22;6.30;99.90
28532;DHT22;15738;44.860;10.066;2022-12-07T11:45:16;6.40;99.90
28532;DHT22;15738;44.860;10.066;2022-12-07T11:48:25;6.40;99.90
28532;DHT22;15738;44.860;10.066;2022-12-07T11:51:16;6.50;99.90
28532;DHT22;15738;44.860;10.066;2022-12-07T11:54:14;6.60;99.90
28532;DHT22;15738;44.860;10.066;2022-12-07T11:57:33;6.60;99.90
28532;DHT22;15738;44.860;10.066;2022-12-07T12:00:17;6.60;99.90
28532;DHT22;15738;44.860;10.066;2022-12-07T12:03:13;6.50;99.90
28532;DHT22;15738;44.860;10.066;2022-12-07T12:06:02;6.50;99.90
28532;DHT22;15738;44.860;10.066;2022-12-07T12:12:21;6.50;99.90
28532;DHT22;15738;44.860;10.066;2022-12-07T12:22:20;6.50;99.90
28532;DHT22;15738;44.860;10.066;2022-12-07T12:25:29;6.40;99.90
28532;DHT22;15738;44.860;10.066;2022-12-07T12:31:38;6.30;99.90
28532;DHT22;15738;44.860;10.066;2022-12-07T12:34:37;6.30;99.90
28532;DHT22;15738;44.860;10.066;2022-12-07T12:43:45;6.50;99.90
28532;DHT22;15738;44.860;10.066;2022-12-07T12:46:37;6.50;99.90
28532;DHT22;15738;44.860;10.066;2022-12-07T12:58:44;6.40;99.90
28532;DHT22;15738;44.860;10.066;2022-12-07T13:01:40;6.30;99.90
28532;DHT22;15738;44.860;10.066;2022-12-07T13:04:39;6.40;99.90
28532;DHT22;15738;44.860;10.066;2022-12-07T13:10:40;6.50;99.90
28532;DHT22;15738;44.860;10.066;2022-12-07T13:13:32;6.50;99.90
28532;DHT22;15738;44.860;10.066;2022-12-07T13:28:26;6.40;99.90
28532;DHT22;15738;44.860;10.066;2022-12-07T13:31:30;6.60;99.90
28532;DHT22;15738;44.860;10.066;2022-12-07T13:37:29;6.60;99.90
28532;DHT22;15738;44.860;10.066;2022-12-07T13:40:23;6.60;99.90
28532;DHT22;15738;44.860;10.066;2022-12-07T13:43:14;6.60;99.90
28532;DHT22;15738;44.860;10.066;2022-12-07T13:46:00;6.60;99.90
28532;DHT22;15738;44.860;10.066;2022-12-07T13:48:47;6.60;99.90
28532;DHT22;15738;44.860;10.066;2022-12-07T13:51:36;6.50;99.90
28532;DHT22;15738;44.860;10.066;2022-12-07T13:54:22;6.50;99.90
28532;DHT22;15738;44.860;10.066;2022-12-07T13:57:09;6.50;99.90
28532;DHT22;15738;44.860;10.066;2022-12-07T13:59:54;6.50;99.90
28532;DHT22;15738;44.860;10.066;2022-12-07T14:05:47;6.50;99.90
28532;DHT22;15738;44.860;10.066;2022-12-07T14:08:48;6.50;99.90
28532;DHT22;15738;44.860;10.066;2022-12-07T14:11:41;6.50;99.90
28532;DHT22;15738;44.860;10.066;2022-12-07T14:14:30;6.50;99.90
28532;DHT22;15738;44.860;10.066;2022-12-07T14:17:24;6.40;99.90
28532;DHT22;15738;44.860;10.066;2022-12-07T14:20:48;6.40;99.90
28532;DHT22;15738;44.860;10.066;2022-12-07T14:23:34;6.40;99.90
28532;DHT22;15738;44.860;10.066;2022-12-07T14:26:20;6.40;99.90
28532;DHT22;15738;44.860;10.066;2022-12-07T14:32:26;6.40;99.90
28532;DHT22;15738;44.860;10.066;2022-12-07T14:35:18;6.50;99.90
28532;DHT22;15738;44.860;10.066;2022-12-07T14:38:03;6.50;99.90
28532;DHT22;15738;44.860;10.066;2022-12-07T14:40:53;6.40;99.90
28532;DHT22;15738;44.860;10.066;2022-12-07T14:43:39;6.50;99.90
28532;DHT22;15738;44.860;10.066;2022-12-07T14:46:44;6.50;99.90
28532;DHT22;15738;44.860;10.066;2022-12-07T14:49:35;6.40;99.90
28532;DHT22;15738;44.860;10.066;2022-12-07T14:52:29;6.40;99.90
28532;DHT22;15738;44.860;10.066;2022-12-07T14:55:38;6.40;99.90
28532;DHT22;15738;44.860;10.066;2022-12-07T14:58:24;6.50;99.90
28532;DHT22;15738;44.860;10.066;2022-12-07T15:01:09;6.40;99.90
28532;DHT22;15738;44.860;10.066;2022-12-07T15:03:55;6.40;99.90
28532;DHT22;15738;44.860;10.066;2022-12-07T15:06:41;6.40;99.90
28532;DHT22;15738;44.860;10.066;2022-12-07T15:09:29;6.40;99.90
28532;DHT22;15738;44.860;10.066;2022-12-07T15:12:15;6.40;99.90
28532;DHT22;15738;44.860;10.066;2022-12-07T15:15:01;6.30;99.90
28532;DHT22;15738;44.860;10.066;2022-12-07T15:17:48;6.30;99.90
28532;DHT22;15738;44.860;10.066;2022-12-07T15:20:50;6.20;99.90
28532;DHT22;15738;44.860;10.066;2022-12-07T15:23:35;6.10;99.90
28532;DHT22;15738;44.860;10.066;2022-12-07T15:26:21;6.10;99.90
28532;DHT22;15738;44.860;10.066;2022-12-07T15:29:09;6.10;99.90
28532;DHT22;15738;44.860;10.066;2022-12-07T15:31:55;6.10;99.90
28532;DHT22;15738;44.860;10.066;2022-12-07T15:34:43;6.00;99.90
28532;DHT22;15738;44.860;10.066;2022-12-07T15:37:28;6.00;99.90
28532;DHT22;15738;44.860;10.066;2022-12-07T15:40:14;6.00;99.90
28532;DHT22;15738;44.860;10.066;2022-12-07T15:43:02;6.00;99.90
28532;DHT22;15738;44.860;10.066;2022-12-07T15:45:49;6.10;99.90
28532;DHT22;15738;44.860;10.066;2022-12-07T15:48:35;6.10;99.90
28532;DHT22;15738;44.860;10.066;2022-12-07T15:51:21;6.10;99.90
28532;DHT22;15738;44.860;10.066;2022-12-07T15:54:42;6.10;99.90
28532;DHT22;15738;44.860;10.066;2022-12-07T15:57:32;6.00;99.90
28532;DHT22;15738;44.860;10.066;2022-12-07T16:00:19;6.00;99.90
28532;DHT22;15738;44.860;10.066;2022-12-07T16:03:05;6.00;99.90
28532;DHT22;15738;44.860;10.066;2022-12-07T16:05:52;6.00;99.90
28532;DHT22;15738;44.860;10.066;2022-12-07T16:08:43;6.00;99.90
28532;DHT22;15738;44.860;10.066;2022-12-07T16:11:29;5.90;99.90
28532;DHT22;15738;44.860;10.066;2022-12-07T16:14:15;5.90;99.90
28532;DHT22;15738;44.860;10.066;2022-12-07T16:17:01;5.80;99.90
28532;DHT22;15738;44.860;10.066;2022-12-07T16:19:47;5.80;99.90
28532;DHT22;15738;44.860;10.066;2022-12-07T16:22:35;5.90;99.90
28532;DHT22;15738;44.860;10.066;2022-12-07T16:25:21;5.90;99.90
28532;DHT22;15738;44.860;10.066;2022-12-07T16:28:07;5.90;99.90
28532;DHT22;15738;44.860;10.066;2022-12-07T16:31:01;5.90;99.90
28532;DHT22;15738;44.860;10.066;2022-12-07T16:33:48;5.90;99.90
28532;DHT22;15738;44.860;10.066;2022-12-07T16:36:34;5.80;99.90
28532;DHT22;15738;44.860;10.066;2022-12-07T16:39:40;5.80;99.90
28532;DHT22;15738;44.860;10.066;2022-12-07T16:42:26;5.80;99.90
28532;DHT22;15738;44.860;10.066;2022-12-07T16:45:12;5.80;99.90
28532;DHT22;15738;44.860;10.066;2022-12-07T16:48:05;5.80;99.90
28532;DHT22;15738;44.860;10.066;2022-12-07T16:50:51;5.80;99.90
28532;DHT22;15738;44.860;10.066;2022-12-07T16:53:40;5.80;99.90
28532;DHT22;15738;44.860;10.066;2022-12-07T16:56:27;5.80;99.90
28532;DHT22;15738;44.860;10.066;2022-12-07T16:59:14;5.70;99.90
28532;DHT22;15738;44.860;10.066;2022-12-07T17:02:01;5.80;99.90
28532;DHT22;15738;44.860;10.066;2022-12-07T17:04:47;5.80;99.90
28532;DHT22;15738;44.860;10.066;2022-12-07T17:07:33;5.80;99.90
28532;DHT22;15738;44.860;10.066;2022-12-07T17:10:18;5.80;99.90
28532;DHT22;15738;44.860;10.066;2022-12-07T17:13:05;5.80;99.90
28532;DHT22;15738;44.860;10.066;2022-12-07T17:16:11;5.80;99.90
28532;DHT22;15738;44.860;10.066;2022-12-07T17:18:57;5.80;99.90
28532;DHT22;15738;44.860;10.066;2022-12-07T17:21:43;5.70;99.90
28532;DHT22;15738;44.860;10.066;2022-12-07T17:24:29;5.70;99.90
28532;DHT22;15738;44.860;10.066;2022-12-07T17:27:15;5.70;99.90
28532;DHT22;15738;44.860;10.066;2022-12-07T17:30:06;5.70;99.90
28532;DHT22;15738;44.860;10.066;2022-12-07T17:32:52;5.70;99.90
28532;DHT22;15738;44.860;10.066;2022-12-07T17:35:38;5.70;99.90
28532;DHT22;15738;44.860;10.066;2022-12-07T17:38:23;5.70;99.90
28532;DHT22;15738;44.860;10.066;2022-12-07T17:41:17;5.70;99.90
28532;DHT22;15738;44.860;10.066;2022-12-07T17:44:24;5.70;99.90
28532;DHT22;15738;44.860;10.066;2022-12-07T17:47:12;5.70;99.90
28532;DHT22;15738;44.860;10.066;2022-12-07T17:49:57;5.70;99.90
28532;DHT22;15738;44.860;10.066;2022-12-07T17:52:51;5.70;99.90
28532;DHT22;15738;44.860;10.066;2022-12-07T17:55:56;5.60;99.90
28532;DHT22;15738;44.860;10.066;2022-12-07T17:59:03;5.70;99.90
28532;DHT22;15738;44.860;10.066;2022-12-07T18:01:48;5.60;99.90
28532;DHT22;15738;44.860;10.066;2022-12-07T18:04:34;5.60;99.90
28532;DHT22;15738;44.860;10.066;2022-12-07T18:07:19;5.60;99.90
28532;DHT22;15738;44.860;10.066;2022-12-07T18:10:06;5.60;99.90
28532;DHT22;15738;44.860;10.066;2022-12-07T18:12:53;5.70;99.90
28532;DHT22;15738;44.860;10.066;2022-12-07T18:15:59;5.70;99.90
28532;DHT22;15738;44.860;10.066;2022-12-07T18:18:45;5.70;99.90
28532;DHT22;15738;44.860;10.066;2022-12-07T18:21:37;5.70;99.90
28532;DHT22;15738;44.860;10.066;2022-12-07T18:24:23;5.70;99.90
28532;DHT22;15738;44.860;10.066;2022-12-07T18:27:09;5.80;99.90
28532;DHT22;15738;44.860;10.066;2022-12-07T18:29:54;5.80;99.90
28532;DHT22;15738;44.860;10.066;2022-12-07T18:32:40;5.80;99.90
28532;DHT22;15738;44.860;10.066;2022-12-07T18:35:26;5.70;99.90
28532;DHT22;15738;44.860;10.066;2022-12-07T18:38:12;5.70;99.90
28532;DHT22;15738;44.860;10.066;2022-12-07T18:40:58;5.70;99.90
28532;DHT22;15738;44.860;10.066;2022-12-07T18:43:44;5.70;99.90
28532;DHT22;15738;44.860;10.066;2022-12-07T18:46:30;5.70;99.90
28532;DHT22;15738;44.860;10.066;2022-12-07T18:49:16;5.70;99.90
28532;DHT22;15738;44.860;10.066;2022-12-07T18:52:02;5.60;99.90
28532;DHT22;15738;44.860;10.066;2022-12-07T18:54:47;5.60;99.90
28532;DHT22;15738;44.860;10.066;2022-12-07T18:57:33;5.60;99.90
28532;DHT22;15738;44.860;10.066;2022-12-07T19:00:19;5.60;99.90
28532;DHT22;15738;44.860;10.066;2022-12-07T19:03:05;5.50;99.90
28532;DHT22;15738;44.860;10.066;2022-12-07T19:05:51;5.50;99.90
28532;DHT22;15738;44.860;10.066;2022-12-07T19:08:37;5.50;99.90
28532;DHT22;15738;44.860;10.066;2022-12-07T19:11:25;5.50;99.90
28532;DHT22;15738;44.860;10.066;2022-12-07T19:14:35;5.50;99.90
28532;DHT22;15738;44.860;10.066;2022-12-07T19:17:21;5.60;99.90
28532;DHT22;15738;44.860;10.066;2022-12-07T19:20:11;5.60;99.90
28532;DHT22;15738;44.860;10.066;2022-12-07T19:22:57;5.60;99.90
28532;DHT22;15738;44.860;10.066;2022-12-07T19:25:43;5.50;99.90
28532;DHT22;15738;44.860;10.066;2022-12-07T19:28:29;5.50;99.90
28532;DHT22;15738;44.860;10.066;2022-12-07T19:31:14;5.50;99.90
28532;DHT22;15738;44.860;10.066;2022-12-07T19:34:00;5.50;99.90
28532;DHT22;15738;44.860;10.066;2022-12-07T19:36:46;5.50;99.90